createdAt,value
2023-05-21T00:00:08.353Z,19.10
2023-05-21T00:02:37.015Z,19.00
2023-05-21T00:05:06.359Z,19.00
2023-05-21T00:07:35.001Z,19.00
2023-05-21T00:10:03.814Z,18.90
2023-05-21T00:12:32.445Z,18.90
2023-05-21T00:15:21.944Z,18.90
2023-05-21T00:17:50.663Z,18.90
2023-05-21T00:20:19.391Z,18.90
2023-05-21T00:22:48.203Z,18.90
2023-05-21T00:25:16.848Z,18.90
2023-05-21T00:27:45.473Z,18.90
2023-05-21T00:30:14.097Z,18.90
2023-05-21T00:32:42.745Z,18.90
2023-05-21T00:35:11.356Z,18.80
2023-05-21T00:37:40.704Z,18.80
2023-05-21T00:40:10.055Z,18.70
2023-05-21T00:42:41.629Z,18.70
2023-05-21T00:45:10.480Z,18.70
2023-05-21T00:47:39.172Z,18.70
2023-05-21T00:50:08.938Z,18.60
2023-05-21T00:52:39.266Z,18.60
2023-05-21T00:55:08.645Z,18.60
2023-05-21T00:57:38.026Z,18.50
2023-05-21T01:00:08.958Z,18.50
2023-05-21T01:02:38.440Z,18.50
2023-05-21T01:05:07.588Z,18.40
2023-05-21T01:07:39.051Z,18.40
2023-05-21T01:10:10.402Z,18.40
2023-05-21T01:12:41.945Z,18.30
2023-05-21T01:15:11.258Z,18.30
2023-05-21T01:17:41.597Z,18.20
2023-05-21T01:20:11.225Z,18.20
2023-05-21T01:22:43.842Z,18.20
2023-05-21T01:25:12.474Z,18.10
2023-05-21T01:27:41.679Z,18.10
2023-05-21T01:30:10.869Z,18.00
2023-05-21T01:32:51.473Z,18.00
2023-05-21T01:35:28.699Z,17.90
2023-05-21T01:38:00.379Z,17.90
2023-05-21T01:40:34.530Z,17.80
2023-05-21T01:43:06.578Z,17.80
2023-05-21T01:45:38.303Z,17.80
2023-05-21T01:48:08.717Z,17.70
2023-05-21T01:50:39.982Z,17.60
2023-05-21T01:53:08.687Z,17.50
2023-05-21T01:55:38.950Z,17.50
2023-05-21T01:58:07.655Z,17.40
2023-05-21T02:00:37.378Z,17.40
2023-05-21T02:03:06.484Z,17.30
2023-05-21T02:05:35.873Z,17.30
2023-05-21T02:08:05.501Z,17.30
2023-05-21T02:10:34.135Z,17.20
2023-05-21T02:13:03.304Z,17.20
2023-05-21T02:15:33.768Z,17.20
2023-05-21T02:18:02.653Z,17.20
2023-05-21T02:20:31.949Z,17.10
2023-05-21T02:23:00.612Z,17.10
2023-05-21T02:25:29.344Z,17.10
2023-05-21T02:27:57.998Z,17.10
2023-05-21T02:30:26.622Z,17.10
2023-05-21T02:32:55.581Z,17.10
2023-05-21T02:35:24.203Z,17.10
2023-05-21T02:37:52.840Z,17.10
2023-05-21T02:40:21.500Z,17.10
2023-05-21T02:42:50.171Z,17.10
2023-05-21T02:45:18.805Z,17.10
2023-05-21T02:47:47.610Z,17.10
2023-05-21T02:50:16.312Z,17.20
2023-05-21T02:52:44.927Z,17.20
2023-05-21T02:55:13.563Z,17.20
2023-05-21T02:57:42.203Z,17.20
2023-05-21T03:00:11.610Z,17.20
2023-05-21T03:02:41.365Z,17.20
2023-05-21T03:05:10.503Z,17.20
2023-05-21T03:07:39.134Z,17.20
2023-05-21T03:10:08.133Z,17.20
2023-05-21T03:12:36.760Z,17.20
2023-05-21T03:15:05.523Z,17.20
2023-05-21T03:17:34.187Z,17.20
2023-05-21T03:20:04.518Z,17.20
2023-05-21T03:22:33.160Z,17.10
2023-05-21T03:25:04.817Z,17.10
2023-05-21T03:27:33.592Z,17.10
2023-05-21T03:30:02.256Z,17.10
2023-05-21T03:32:30.981Z,17.10
2023-05-21T03:35:00.020Z,17.10
2023-05-21T03:37:28.668Z,17.10
2023-05-21T03:39:57.382Z,17.10
2023-05-21T03:42:26.063Z,17.10
2023-05-21T03:44:54.702Z,17.10
2023-05-21T03:47:23.353Z,17.10
2023-05-21T03:49:52.151Z,17.10
2023-05-21T03:52:20.914Z,17.10
2023-05-21T03:54:49.648Z,17.00
2023-05-21T03:57:18.371Z,17.00
2023-05-21T03:59:46.989Z,17.00
2023-05-21T04:02:16.042Z,17.00
2023-05-21T04:04:45.760Z,17.00
2023-05-21T04:07:15.216Z,17.00
2023-05-21T04:09:43.922Z,17.00
2023-05-21T04:12:12.701Z,17.00
2023-05-21T04:14:41.819Z,17.00
2023-05-21T04:17:12.102Z,17.00
2023-05-21T04:19:40.805Z,17.00
2023-05-21T04:22:11.694Z,17.00
2023-05-21T04:24:40.306Z,17.00
2023-05-21T04:27:10.093Z,17.00
2023-05-21T04:29:40.378Z,17.00
2023-05-21T04:32:09.754Z,17.00
2023-05-21T04:34:39.573Z,17.00
2023-05-21T04:37:09.398Z,17.00
2023-05-21T04:39:38.018Z,17.00
2023-05-21T04:42:06.849Z,17.00
2023-05-21T04:44:35.473Z,17.00
2023-05-21T04:47:04.230Z,17.00
2023-05-21T04:49:34.849Z,17.10
2023-05-21T04:52:03.531Z,17.10
2023-05-21T04:54:32.155Z,17.10
2023-05-21T04:57:01.051Z,17.10
2023-05-21T04:59:29.742Z,17.20
2023-05-21T05:01:58.453Z,17.20
2023-05-21T05:04:27.498Z,17.20
2023-05-21T05:06:56.121Z,17.30
2023-05-21T05:09:25.256Z,17.30
2023-05-21T05:11:53.899Z,17.30
2023-05-21T05:14:22.589Z,17.40
2023-05-21T05:16:51.436Z,17.40
2023-05-21T05:19:20.471Z,17.40
2023-05-21T05:21:49.082Z,17.50
2023-05-21T05:24:17.726Z,17.50
2023-05-21T05:26:47.226Z,17.50
2023-05-21T05:29:15.994Z,17.50
2023-05-21T05:31:44.629Z,17.60
2023-05-21T05:34:13.255Z,17.50
2023-05-21T05:36:41.937Z,17.60
2023-05-21T05:39:10.555Z,17.60
2023-05-21T05:41:39.290Z,17.70
2023-05-21T05:44:09.562Z,17.70
2023-05-21T05:46:38.416Z,17.70
2023-05-21T05:49:07.180Z,17.80
2023-05-21T05:51:36.551Z,17.80
2023-05-21T05:54:05.394Z,17.80
2023-05-21T05:56:34.402Z,17.90
2023-05-21T05:59:03.292Z,17.90
2023-05-21T06:01:32.058Z,18.00
2023-05-21T06:04:00.844Z,18.10
2023-05-21T06:06:48.839Z,18.10
2023-05-21T06:09:17.544Z,18.20
2023-05-21T06:11:58.879Z,18.20
2023-05-21T06:14:28.026Z,18.30
2023-05-21T06:17:01.043Z,18.40
2023-05-21T06:19:30.039Z,18.50
2023-05-21T06:22:05.161Z,18.50
2023-05-21T06:24:33.971Z,18.60
2023-05-21T06:27:04.017Z,18.70
2023-05-21T06:29:34.526Z,18.80
2023-05-21T06:32:03.333Z,18.90
2023-05-21T06:34:33.922Z,19.00
2023-05-21T06:37:02.822Z,19.00
2023-05-21T06:39:31.481Z,19.10
2023-05-21T06:42:00.527Z,19.30
2023-05-21T06:44:29.166Z,19.40
2023-05-21T06:46:57.856Z,19.60
2023-05-21T06:49:26.695Z,19.70
2023-05-21T06:51:55.341Z,19.80
2023-05-21T06:54:27.127Z,20.00
2023-05-21T06:56:56.194Z,20.20
2023-05-21T06:59:31.339Z,20.40
2023-05-21T07:02:02.326Z,20.60
2023-05-21T07:04:30.960Z,20.80
2023-05-21T07:06:59.738Z,21.00
2023-05-21T07:09:28.542Z,21.10
2023-05-21T07:11:57.268Z,21.30
2023-05-21T07:14:27.194Z,21.40
2023-05-21T07:16:55.996Z,21.60
2023-05-21T07:19:24.765Z,21.70
2023-05-21T07:21:56.993Z,22.00
2023-05-21T07:24:27.363Z,22.20
2023-05-21T07:26:56.114Z,22.50
2023-05-21T07:29:24.855Z,22.80
2023-05-21T07:31:56.547Z,23.00
2023-05-21T07:34:26.978Z,23.20
2023-05-21T07:37:00.204Z,23.30
2023-05-21T07:39:28.864Z,23.30
2023-05-21T07:41:57.535Z,23.40
2023-05-21T07:44:26.252Z,23.40
2023-05-21T07:46:54.888Z,23.40
2023-05-21T07:49:23.606Z,23.40
2023-05-21T07:52:12.839Z,23.40
2023-05-21T07:54:41.537Z,23.40
2023-05-21T07:57:10.544Z,23.40
2023-05-21T07:59:40.714Z,23.40
2023-05-21T08:02:09.353Z,23.50
2023-05-21T08:04:40.903Z,23.40
2023-05-21T08:07:09.766Z,23.40
2023-05-21T08:09:38.526Z,23.40
2023-05-21T08:12:09.036Z,23.50
2023-05-21T08:14:38.183Z,23.50
2023-05-21T08:17:06.829Z,23.60
2023-05-21T08:19:35.544Z,23.60
2023-05-21T08:22:05.959Z,23.80
2023-05-21T08:24:34.825Z,23.90
2023-05-21T08:27:03.486Z,24.00
2023-05-21T08:29:33.089Z,24.10
2023-05-21T08:32:03.788Z,24.20
2023-05-21T08:34:32.443Z,24.30
2023-05-21T08:37:01.372Z,24.40
2023-05-21T08:39:30.033Z,24.50
2023-05-21T08:42:03.238Z,24.60
2023-05-21T08:44:33.959Z,24.60
2023-05-21T08:47:05.814Z,24.70
2023-05-21T08:49:40.970Z,24.90
2023-05-21T08:57:09.522Z,25.00
2023-05-21T08:59:40.327Z,25.50
2023-05-21T09:02:09.149Z,25.60
2023-05-21T09:04:39.056Z,25.70
2023-05-21T09:07:11.236Z,25.80
2023-05-21T09:09:50.501Z,25.80
2023-05-21T09:12:19.438Z,25.80
2023-05-21T09:14:51.758Z,25.80
2023-05-21T09:17:22.464Z,25.90
2023-05-21T09:20:16.248Z,25.90
2023-05-21T09:22:47.140Z,26.00
2023-05-21T09:25:18.196Z,26.10
2023-05-21T10:43:08.895Z,26.30
2023-05-21T10:46:25.371Z,28.70
2023-05-21T10:49:02.948Z,28.80
2023-05-21T10:51:57.870Z,29.10
2023-05-21T10:54:50.032Z,29.20
2023-05-21T10:57:41.231Z,29.30
2023-05-21T11:00:11.930Z,29.50
2023-05-21T11:02:41.004Z,29.60
2023-05-21T11:05:09.853Z,29.70
2023-05-21T11:07:59.063Z,29.70
2023-05-21T11:10:41.480Z,29.80
2023-05-21T11:13:13.184Z,29.70
2023-05-21T11:16:04.865Z,29.70
2023-05-21T11:18:42.156Z,29.60
2023-05-21T11:21:12.107Z,29.60
2023-05-21T11:24:02.741Z,29.60
2023-05-21T11:26:40.735Z,29.50
2023-05-21T11:29:09.886Z,29.40
2023-05-21T11:31:38.886Z,29.30
2023-05-21T11:34:15.274Z,29.30
2023-05-21T11:36:46.843Z,29.40
2023-05-21T11:39:22.814Z,29.50
2023-05-21T11:41:53.699Z,29.60
2023-05-21T11:44:47.380Z,29.70
2023-05-21T11:47:18.543Z,29.90
2023-05-21T11:49:48.181Z,30.10
2023-05-21T11:52:17.112Z,30.20
2023-05-21T11:54:53.336Z,30.30
2023-05-21T11:57:22.926Z,30.40
2023-05-21T11:59:51.620Z,30.50
2023-05-21T12:02:22.383Z,30.60
2023-05-21T12:04:52.028Z,30.80
2023-05-21T12:07:22.571Z,30.80
2023-05-21T12:09:52.536Z,30.90
2023-05-21T12:12:23.575Z,30.90
2023-05-21T12:14:53.980Z,30.90
2023-05-21T12:17:28.105Z,31.00
2023-05-21T12:19:57.258Z,31.10
2023-05-21T12:22:28.163Z,31.10
2023-05-21T12:24:58.406Z,31.10
2023-05-21T12:27:28.288Z,31.10
2023-05-21T12:29:57.424Z,31.10
2023-05-21T12:32:29.285Z,31.00
2023-05-21T12:34:58.055Z,31.00
2023-05-21T12:37:30.070Z,31.00
2023-05-21T12:40:01.327Z,31.10
2023-05-21T12:42:34.250Z,31.10
2023-05-21T12:45:09.621Z,31.20
2023-05-21T12:47:39.076Z,31.20
2023-05-21T12:50:12.460Z,31.20
2023-05-21T12:52:43.221Z,31.20
2023-05-21T12:55:16.293Z,31.30
2023-05-21T12:57:48.351Z,31.30
2023-05-21T13:00:20.131Z,31.40
2023-05-21T13:02:48.876Z,31.40
2023-05-21T13:05:20.432Z,31.40
2023-05-21T13:07:50.896Z,31.40
2023-05-21T13:10:19.693Z,31.50
2023-05-21T13:12:48.582Z,31.50
2023-05-21T13:15:17.441Z,31.60
2023-05-21T13:17:47.828Z,31.50
2023-05-21T13:20:21.698Z,31.40
2023-05-21T13:22:52.710Z,31.40
2023-05-21T13:25:27.332Z,31.30
2023-05-21T13:27:56.971Z,31.40
2023-05-21T13:30:26.005Z,31.40
2023-05-21T13:32:55.219Z,31.30
2023-05-21T13:35:23.997Z,31.30
2023-05-21T13:37:52.831Z,31.20
2023-05-21T13:40:23.895Z,31.20
2023-05-21T13:42:52.588Z,31.20
2023-05-21T13:45:23.683Z,31.20
2023-05-21T13:47:52.312Z,31.20
2023-05-21T13:50:20.939Z,31.30
2023-05-21T13:52:49.666Z,31.30
2023-05-21T13:55:21.042Z,31.40
2023-05-21T13:57:49.756Z,31.40
2023-05-21T14:00:18.558Z,31.50
2023-05-21T14:02:47.397Z,31.40
2023-05-21T14:05:16.086Z,31.50
2023-05-21T14:07:46.365Z,31.50
2023-05-21T14:10:15.810Z,31.50
2023-05-21T14:12:46.030Z,31.40
2023-05-21T14:15:14.643Z,31.40
2023-05-21T14:17:46.276Z,31.30
2023-05-21T14:20:14.903Z,31.40
2023-05-21T14:22:43.762Z,31.40
2023-05-21T14:25:12.466Z,31.40
2023-05-21T14:27:41.185Z,31.40
2023-05-21T14:30:11.398Z,31.50
2023-05-21T14:32:40.197Z,31.50
2023-05-21T14:35:09.059Z,31.50
2023-05-21T14:37:39.304Z,31.50
2023-05-21T14:40:08.975Z,31.40
2023-05-21T14:42:37.855Z,31.50
2023-05-21T14:45:17.984Z,31.50
2023-05-21T14:47:37.352Z,31.40
2023-05-21T14:50:06.602Z,31.40
2023-05-21T14:52:35.387Z,31.40
2023-05-21T14:55:04.100Z,31.30
2023-05-21T14:57:32.755Z,31.20
2023-05-21T15:00:01.568Z,31.20
2023-05-21T15:02:30.411Z,31.20
2023-05-21T15:05:00.615Z,31.20
2023-05-21T15:07:29.286Z,31.30
2023-05-21T15:09:57.967Z,31.30
2023-05-21T15:12:27.280Z,31.30
2023-05-21T15:14:55.943Z,31.30
2023-05-21T15:17:24.668Z,31.30
2023-05-21T15:19:53.356Z,31.30
2023-05-21T15:22:21.995Z,31.20
2023-05-21T15:24:50.709Z,31.20
2023-05-21T15:27:19.605Z,31.20
2023-05-21T15:29:49.223Z,31.20
2023-05-21T15:32:18.457Z,31.20
2023-05-21T15:34:47.625Z,31.10
2023-05-21T15:37:16.543Z,31.20
2023-05-21T15:39:47.275Z,31.20
2023-05-21T15:42:16.277Z,31.20
2023-05-21T15:44:44.911Z,31.20
2023-05-21T15:47:13.538Z,31.20
2023-05-21T15:49:42.202Z,31.10
2023-05-21T15:52:10.863Z,31.10
2023-05-21T15:54:39.504Z,31.10
2023-05-21T15:57:08.128Z,31.10
2023-05-21T15:59:36.858Z,31.10
2023-05-21T16:02:05.998Z,31.10
2023-05-21T16:04:34.738Z,31.10
2023-05-21T16:07:03.373Z,31.10
2023-05-21T16:09:32.176Z,31.10
2023-05-21T16:12:00.869Z,31.10
2023-05-21T16:14:29.535Z,31.10
2023-05-21T16:16:58.252Z,31.10
2023-05-21T16:19:26.961Z,31.00
2023-05-21T16:21:55.781Z,30.90
2023-05-21T16:24:24.453Z,30.90
2023-05-21T16:26:53.089Z,30.70
2023-05-21T16:29:22.116Z,30.60
2023-05-21T16:31:50.906Z,30.60
2023-05-21T16:34:19.507Z,30.50
2023-05-21T16:36:48.161Z,30.40
2023-05-21T16:39:16.891Z,30.30
2023-05-21T16:41:45.534Z,30.30
2023-05-21T16:44:14.159Z,30.20
2023-05-21T16:46:42.986Z,30.20
2023-05-21T16:49:11.640Z,30.20
2023-05-21T16:51:41.575Z,30.10
2023-05-21T16:54:10.823Z,30.00
2023-05-21T16:56:39.556Z,29.90
2023-05-21T16:59:08.190Z,29.90
2023-05-21T17:01:37.336Z,29.80
2023-05-21T17:04:06.374Z,29.80
2023-05-21T17:06:35.144Z,29.80
2023-05-21T17:09:04.090Z,29.70
2023-05-21T17:11:32.847Z,29.70
2023-05-21T17:14:01.488Z,29.70
2023-05-21T17:16:30.304Z,29.60
2023-05-21T17:18:59.194Z,29.50
2023-05-21T17:21:27.832Z,29.40
2023-05-21T17:23:56.485Z,29.30
2023-05-21T17:26:25.129Z,29.30
2023-05-21T17:28:53.792Z,29.10
2023-05-21T17:31:22.503Z,29.00
2023-05-21T17:33:51.160Z,28.90
2023-05-21T17:36:19.815Z,28.80
2023-05-21T17:38:48.917Z,28.70
2023-05-21T17:41:19.059Z,28.60
2023-05-21T17:43:47.775Z,28.50
2023-05-21T17:46:17.910Z,28.40
2023-05-21T17:48:46.691Z,28.40
2023-05-21T17:51:15.810Z,28.30
2023-05-21T17:53:44.455Z,28.30
2023-05-21T17:56:13.168Z,28.20
2023-05-21T17:58:41.816Z,28.20
2023-05-21T18:01:10.560Z,28.10
2023-05-21T18:03:39.327Z,28.10
2023-05-21T18:06:09.521Z,28.00
2023-05-21T18:08:38.269Z,27.90
2023-05-21T18:11:06.996Z,27.90
2023-05-21T18:13:35.715Z,27.90
2023-05-21T18:16:04.431Z,27.80
2023-05-21T18:18:33.080Z,27.80
2023-05-21T18:21:01.802Z,27.80
2023-05-21T18:23:31.210Z,27.70
2023-05-21T18:25:59.859Z,27.60
2023-05-21T18:28:29.386Z,27.60
2023-05-21T18:30:59.698Z,27.50
2023-05-21T18:33:28.740Z,27.50
2023-05-21T18:35:57.368Z,27.40
2023-05-21T18:38:26.345Z,27.40
2023-05-21T18:40:54.992Z,27.30
2023-05-21T18:43:23.766Z,27.30
2023-05-21T18:50:49.126Z,27.20
2023-05-21T18:53:17.742Z,26.50
2023-05-21T18:55:46.384Z,26.20
2023-05-21T19:30:29.270Z,25.80
2023-05-21T19:32:57.924Z,24.50
2023-05-21T19:35:26.547Z,24.30
2023-05-21T19:37:56.806Z,24.20
2023-05-21T19:40:26.077Z,24.10
2023-05-21T19:42:54.709Z,24.00
2023-05-21T19:45:25.279Z,23.90
2023-05-21T19:47:54.005Z,23.80
2023-05-21T19:50:22.807Z,23.80
2023-05-21T19:52:52.121Z,23.70
2023-05-21T19:55:20.818Z,23.70
2023-05-21T19:57:49.707Z,23.70
2023-05-21T20:00:19.472Z,23.60
2023-05-21T20:02:48.192Z,23.60
2023-05-21T20:05:18.522Z,23.60
2023-05-21T20:07:47.308Z,23.70
2023-05-21T20:10:16.168Z,23.70
2023-05-21T20:12:46.150Z,23.70
2023-05-21T20:15:14.866Z,23.70
2023-05-21T20:17:44.611Z,23.80
2023-05-21T20:20:13.753Z,23.80
2023-05-21T20:22:42.403Z,23.80
2023-05-21T20:25:11.199Z,23.80
2023-05-21T20:27:39.932Z,23.80
2023-05-21T20:30:09.028Z,23.80
2023-05-21T20:32:37.708Z,23.90
2023-05-21T20:35:09.945Z,23.90
2023-05-21T20:37:38.574Z,23.90
2023-05-21T20:40:09.032Z,23.90
2023-05-21T20:42:37.930Z,23.90
2023-05-21T20:45:06.947Z,23.90
2023-05-21T20:47:36.174Z,23.90
2023-05-21T20:50:05.212Z,23.90
2023-05-21T20:52:37.001Z,23.80
2023-05-21T20:55:05.904Z,23.80
2023-05-21T20:57:34.586Z,23.80
2023-05-21T21:00:04.681Z,23.80
2023-05-21T21:02:33.631Z,23.80
2023-05-21T21:05:03.512Z,23.80
2023-05-21T21:07:32.489Z,23.80
2023-05-21T21:10:01.353Z,23.80
2023-05-21T21:12:30.023Z,23.80
2023-05-21T21:14:58.734Z,23.80
2023-05-21T21:17:27.459Z,23.80
2023-05-21T21:19:56.240Z,23.80
2023-05-21T21:22:24.944Z,23.80
2023-05-21T21:24:53.594Z,23.70
2023-05-21T21:27:22.217Z,23.70
2023-05-21T21:29:50.844Z,23.70
2023-05-21T21:32:19.504Z,23.70
2023-05-21T21:34:48.132Z,23.70
2023-05-21T21:37:16.837Z,23.70
2023-05-21T21:39:47.807Z,23.60
2023-05-21T21:42:16.438Z,23.70
2023-05-21T21:44:45.084Z,23.60
2023-05-21T21:47:13.835Z,23.60
2023-05-21T21:49:42.532Z,23.60
2023-05-21T21:52:12.534Z,23.60
2023-05-21T21:54:41.224Z,23.60
2023-05-21T21:57:09.841Z,23.60
2023-05-21T21:59:39.625Z,23.50
2023-05-21T22:02:08.305Z,23.50
2023-05-21T22:04:36.957Z,23.50
2023-05-21T22:07:05.719Z,23.50
2023-05-21T22:09:34.409Z,23.40
2023-05-21T22:12:04.898Z,23.40
2023-05-21T22:14:35.197Z,23.40
2023-05-21T22:17:04.132Z,23.40
2023-05-21T22:19:33.043Z,23.40
2023-05-21T22:22:03.398Z,23.30
2023-05-21T22:24:33.376Z,23.40
2023-05-21T22:27:02.536Z,23.40
2023-05-21T22:29:31.152Z,23.40
2023-05-21T22:31:59.876Z,23.30
2023-05-21T22:34:28.536Z,23.30
2023-05-21T22:36:57.171Z,23.30
2023-05-21T22:39:25.796Z,23.20
2023-05-21T22:41:54.595Z,23.20
2023-05-21T22:44:23.240Z,23.20
2023-05-21T22:46:52.017Z,23.10
2023-05-21T22:49:20.907Z,23.10
2023-05-21T22:51:50.972Z,23.10
2023-05-21T22:54:19.608Z,23.10
2023-05-21T22:56:49.309Z,23.10
2023-05-21T22:59:17.999Z,23.10
2023-05-21T23:01:46.697Z,23.10
2023-05-21T23:04:15.422Z,23.00
2023-05-21T23:06:44.039Z,23.00
2023-05-21T23:09:12.839Z,23.00
2023-05-21T23:11:42.730Z,23.00
2023-05-21T23:14:11.288Z,22.90
2023-05-21T23:16:41.622Z,22.90
2023-05-21T23:19:12.175Z,22.90
2023-05-21T23:21:42.868Z,22.90
2023-05-21T23:24:11.486Z,22.90
2023-05-21T23:26:40.130Z,22.90
2023-05-21T23:29:08.827Z,22.80
2023-05-21T23:31:37.456Z,22.80
2023-05-21T23:34:06.121Z,22.80
2023-05-21T23:36:34.761Z,22.80
2023-05-21T23:39:03.486Z,22.80
2023-05-21T23:41:32.094Z,22.80
2023-05-21T23:44:00.698Z,22.70
2023-05-21T23:46:29.326Z,22.80
2023-05-21T23:48:57.960Z,22.80
2023-05-21T23:51:26.586Z,22.70
2023-05-21T23:53:55.386Z,22.70
2023-05-21T23:56:24.006Z,22.70
2023-05-21T23:58:52.657Z,22.70
